Time;durP1;ratioP1;P1;durP2;ratioP2;P2;SDS_P1;SDS_P2;PMS_P1;PMS_P2;Temp;Humidity;BMP_temperature;BMP_pressure;BME280_temperature;BME280_humidity;BME280_pressure;Samples;Min_cycle;Max_cycle;Signal;HPM_P1;HPM_P2
2024/02/20 05:02:11;;;;;;;1.20;1.10;;;8.20;97.30;;;;;;5227458;23;20548;-85
2024/02/20 05:04:37;;;;;;;4.27;1.00;;;8.10;97.30;;;;;;4971338;28;20450;-88
2024/02/20 05:07:03;;;;;;;1.03;0.97;;;8.10;97.30;;;;;;4974031;28;20186;-87
2024/02/20 05:09:28;;;;;;;1.10;1.00;;;8.10;97.30;;;;;;4971816;28;20260;-87
2024/02/20 05:11:55;;;;;;;1.53;1.10;;;8.10;97.30;;;;;;4958407;28;20479;-87
2024/02/20 05:14:21;;;;;;;2.33;2.13;;;8.00;97.30;;;;;;4951750;28;20418;-87
2024/02/20 05:16:47;;;;;;;1.00;0.90;;;8.00;97.30;;;;;;4952031;28;20234;-88
2024/02/20 05:19:13;;;;;;;0.97;0.87;;;7.90;97.30;;;;;;4953021;28;20620;-87
2024/02/20 05:21:38;;;;;;;1.10;1.00;;;7.90;97.30;;;;;;4952098;28;20318;-87
2024/02/20 05:24:04;;;;;;;0.90;0.80;;;7.90;97.30;;;;;;4954661;28;20507;-87
2024/02/20 05:26:33;;;;;;;0.80;0.70;;;7.80;97.30;;;;;;4959921;28;20596;-87
2024/02/20 05:28:59;;;;;;;1.33;1.03;;;7.80;97.30;;;;;;4963602;28;20217;-86
2024/02/20 05:31:29;;;;;;;1.10;1.00;;;7.70;97.30;;;;;;4958719;28;20446;-86
2024/02/20 05:34:01;;;;;;;1.13;1.03;;;7.70;97.30;;;;;;4952390;28;20184;-87
2024/02/20 05:36:33;;;;;;;0.90;0.80;;;7.70;97.30;;;;;;4946449;28;20517;-87
2024/02/20 05:39:00;;;;;;;0.90;0.80;;;7.70;97.30;;;;;;4953825;28;20439;-87
2024/02/20 05:41:30;;;;;;;2.10;1.03;;;7.60;97.30;;;;;;4951724;28;20454;-87
2024/02/20 05:44:00;;;;;;;0.90;0.80;;;7.60;97.30;;;;;;4952896;28;20755;-87
2024/02/20 05:46:27;;;;;;;1.17;1.07;;;7.70;97.30;;;;;;4946763;28;20484;-87
2024/02/20 05:48:53;;;;;;;1.00;1.00;;;7.60;97.30;;;;;;4959585;28;20470;-88
2024/02/20 05:51:21;;;;;;;0.90;0.80;;;7.60;97.30;;;;;;4954514;28;20439;-86
2024/02/20 05:53:46;;;;;;;1.07;0.97;;;7.60;97.30;;;;;;4954237;28;20639;-86
2024/02/20 05:56:37;;;;;;;1.53;1.43;;;7.60;97.30;;;;;;4952176;28;20446;-87
2024/02/20 05:59:05;;;;;;;1.00;0.90;;;7.70;97.30;;;;;;4952587;28;20242;-87
2024/02/20 06:01:36;;;;;;;0.97;0.87;;;7.70;97.30;;;;;;4952735;28;20485;-87
2024/02/20 06:04:05;;;;;;;0.90;0.80;;;7.70;97.30;;;;;;4956223;28;20474;-87
2024/02/20 06:06:36;;;;;;;15.73;2.33;;;7.70;97.30;;;;;;4957832;28;20422;-87
2024/02/20 06:09:05;;;;;;;1.20;1.10;;;7.70;97.30;;;;;;4956765;28;20462;-87
2024/02/20 06:11:37;;;;;;;2.53;1.33;;;7.70;97.30;;;;;;4948847;28;20442;-87
2024/02/20 06:14:06;;;;;;;0.80;0.70;;;7.70;97.30;;;;;;4955016;28;20419;-88
2024/02/20 06:16:47;;;;;;;0.80;0.70;;;7.70;97.30;;;;;;4954956;28;20506;-88
2024/02/20 06:19:26;;;;;;;1.17;1.07;;;7.70;97.30;;;;;;4957474;28;20433;-88
2024/02/20 06:21:51;;;;;;;1.10;1.00;;;7.70;97.30;;;;;;4972512;23;21052;-86
2024/02/20 06:24:19;;;;;;;0.90;0.80;;;7.70;97.30;;;;;;4949838;28;20415;-87
2024/02/20 06:26:45;;;;;;;0.90;0.80;;;7.70;97.30;;;;;;4958146;28;20278;-88
2024/02/20 06:29:13;;;;;;;0.90;0.80;;;7.70;97.30;;;;;;4956885;28;20561;-86
2024/02/20 06:31:41;;;;;;;1.10;1.00;;;7.70;97.30;;;;;;4948198;28;20746;-87
2024/02/20 06:34:09;;;;;;;0.90;0.80;;;7.70;97.30;;;;;;4936497;28;21033;-91
2024/02/20 06:36:34;;;;;;;0.90;0.80;;;7.70;97.30;;;;;;4936086;29;20434;-88
2024/02/20 06:39:02;;;;;;;1.53;1.10;;;7.70;97.30;;;;;;4946319;29;20510;-87
2024/02/20 06:41:29;;;;;;;0.90;0.80;;;7.70;97.30;;;;;;4937473;29;20204;-87
2024/02/20 06:43:54;;;;;;;1.30;1.20;;;7.60;97.30;;;;;;4937391;28;20515;-87
2024/02/20 06:46:23;;;;;;;6.53;1.90;;;7.60;97.30;;;;;;4937598;29;20187;-88
2024/02/20 06:48:49;;;;;;;1.00;0.90;;;7.50;97.30;;;;;;4937066;29;20211;-88
2024/02/20 06:51:14;;;;;;;1.10;1.00;;;7.50;97.30;;;;;;4936205;29;20845;-88
2024/02/20 06:53:40;;;;;;;0.90;0.80;;;7.50;97.30;;;;;;4936927;28;20700;-88
2024/02/20 06:56:05;;;;;;;1.00;0.90;;;7.40;97.30;;;;;;4936288;29;20242;-91
2024/02/20 06:58:31;;;;;;;0.83;0.73;;;7.40;97.30;;;;;;4944515;29;20259;-88
2024/02/20 07:00:56;;;;;;;22.87;1.83;;;7.40;97.30;;;;;;4935896;28;20701;-90
2024/02/20 07:03:22;;;;;;;1.27;1.17;;;7.40;97.30;;;;;;4935851;29;20179;-89
2024/02/20 07:05:47;;;;;;;1.00;0.90;;;7.40;97.30;;;;;;4936142;28;20189;-88
2024/02/20 07:08:13;;;;;;;0.90;0.80;;;7.40;97.30;;;;;;4935453;29;20191;-88
2024/02/20 07:10:39;;;;;;;2.50;1.43;;;7.40;97.30;;;;;;4935794;28;20205;-89
2024/02/20 07:13:05;;;;;;;1.10;1.00;;;7.30;97.30;;;;;;4934924;29;20658;-90
2024/02/20 07:15:30;;;;;;;2.00;1.03;;;7.30;97.30;;;;;;4936690;29;20479;-89
2024/02/20 07:17:56;;;;;;;0.90;0.80;;;7.40;97.30;;;;;;4935913;28;20438;-89
2024/02/20 07:20:22;;;;;;;1.73;1.63;;;7.40;97.30;;;;;;4935267;28;20207;-89
2024/02/20 07:22:49;;;;;;;1.00;0.90;;;7.40;97.30;;;;;;4935225;29;20726;-88
2024/02/20 07:25:17;;;;;;;2.37;1.63;;;7.50;97.30;;;;;;4934387;29;20423;-91
2024/02/20 07:27:43;;;;;;;1.00;0.90;;;7.40;97.30;;;;;;4949343;29;20910;-87
2024/02/20 07:30:10;;;;;;;1.40;1.33;;;7.40;97.30;;;;;;4937419;29;20503;-88
2024/02/20 07:32:35;;;;;;;0.90;0.80;;;7.30;97.30;;;;;;4934386;28;20197;-88
2024/02/20 07:35:01;;;;;;;0.90;0.80;;;7.40;97.30;;;;;;4935414;29;20427;-90
2024/02/20 07:37:26;;;;;;;2.07;1.93;;;7.40;97.30;;;;;;4935378;29;20176;-88
2024/02/20 07:39:54;;;;;;;1.10;1.00;;;7.40;97.30;;;;;;4937053;29;20286;-87
2024/02/20 07:42:20;;;;;;;1.00;0.90;;;7.40;97.30;;;;;;4943770;28;20295;-89
2024/02/20 07:44:45;;;;;;;0.97;0.87;;;7.40;97.30;;;;;;4937040;29;20463;-87
2024/02/20 07:47:11;;;;;;;0.90;0.80;;;7.40;97.30;;;;;;4936985;29;20666;-86
2024/02/20 07:49:36;;;;;;;0.90;0.80;;;7.50;97.30;;;;;;4936245;29;20215;-87
2024/02/20 07:52:02;;;;;;;2.03;1.90;;;7.50;97.30;;;;;;4938132;29;20259;-87
2024/02/20 07:54:35;;;;;;;1.30;1.20;;;7.40;97.30;;;;;;4937865;29;20171;-87
2024/02/20 07:57:03;;;;;;;0.80;0.70;;;7.40;97.30;;;;;;4935251;29;20420;-84
2024/02/20 07:59:29;;;;;;;1.27;1.17;;;7.40;97.30;;;;;;4934942;29;20423;-87
2024/02/20 08:01:54;;;;;;;1.13;1.03;;;7.40;97.30;;;;;;4935606;29;20981;-87
2024/02/20 08:04:22;;;;;;;0.80;0.70;;;7.40;97.30;;;;;;4935715;29;20187;-86
2024/02/20 08:06:50;;;;;;;0.90;0.80;;;7.40;97.30;;;;;;4935922;29;20187;-86
2024/02/20 08:09:15;;;;;;;1.30;1.20;;;7.40;97.30;;;;;;4935590;29;20487;-86
2024/02/20 08:11:41;;;;;;;2.87;1.33;;;7.40;97.30;;;;;;4935577;29;20792;-87
2024/02/20 08:14:07;;;;;;;1.10;1.00;;;7.40;97.30;;;;;;4935034;29;20190;-86
2024/02/20 08:16:34;;;;;;;1.00;0.90;;;7.50;97.30;;;;;;4935071;28;20686;-87
2024/02/20 08:19:00;;;;;;;1.00;0.90;;;7.50;97.30;;;;;;4936033;29;20737;-88
2024/02/20 08:21:26;;;;;;;1.20;1.10;;;7.50;97.30;;;;;;4936275;29;20489;-88
2024/02/20 08:23:52;;;;;;;1.33;1.23;;;7.50;97.30;;;;;;4935968;29;20767;-86
2024/02/20 08:26:17;;;;;;;7.63;2.00;;;7.60;97.30;;;;;;4934897;29;20192;-87
2024/02/20 08:28:43;;;;;;;2.30;1.37;;;7.60;97.30;;;;;;4935480;29;20475;-87
2024/02/20 08:31:09;;;;;;;3.13;2.93;;;7.60;97.30;;;;;;4935880;28;20227;-87
2024/02/20 08:33:35;;;;;;;0.90;0.80;;;7.60;97.30;;;;;;4937263;29;20182;-87
2024/02/20 08:36:01;;;;;;;3.47;1.30;;;7.70;97.30;;;;;;4935703;28;20263;-86
2024/02/20 08:38:27;;;;;;;1.50;1.40;;;7.80;97.30;;;;;;4931329;29;20416;-86
2024/02/20 08:40:52;;;;;;;1.23;1.13;;;7.80;97.30;;;;;;4935144;29;20494;-86
2024/02/20 08:43:18;;;;;;;4.10;3.10;;;7.90;97.30;;;;;;4934677;29;20175;-87
2024/02/20 08:45:44;;;;;;;1.23;1.07;;;7.90;97.30;;;;;;4934612;29;20595;-87
2024/02/20 08:48:09;;;;;;;1.57;1.30;;;7.90;97.30;;;;;;4935404;29;20685;-87
2024/02/20 08:50:35;;;;;;;6.47;1.57;;;7.90;97.30;;;;;;4934864;29;20234;-87
2024/02/20 08:53:06;;;;;;;0.97;0.87;;;8.00;97.30;;;;;;4935588;29;20176;-86
2024/02/20 08:55:32;;;;;;;6.80;1.90;;;8.00;97.30;;;;;;4935794;29;20654;-88
2024/02/20 08:57:57;;;;;;;1.63;1.53;;;8.10;97.30;;;;;;4936667;29;20427;-87
2024/02/20 09:00:23;;;;;;;3.53;2.93;;;8.10;97.30;;;;;;4946696;29;20825;-87
2024/02/20 09:02:51;;;;;;;1.43;1.33;;;8.10;97.30;;;;;;4946962;28;20200;-86
2024/02/20 09:05:17;;;;;;;3.17;1.93;;;8.10;97.30;;;;;;4943147;29;20267;-86
2024/02/20 09:07:42;;;;;;;1.60;1.50;;;8.10;97.30;;;;;;4935094;29;20447;-89
2024/02/20 09:10:08;;;;;;;1.03;0.93;;;8.10;97.30;;;;;;4934706;28;20633;-86
2024/02/20 09:12:34;;;;;;;1.00;0.90;;;8.20;97.30;;;;;;4934868;29;20210;-87
2024/02/20 09:15:03;;;;;;;1.10;1.00;;;8.20;97.30;;;;;;4934561;29;20506;-86
2024/02/20 09:17:29;;;;;;;1.63;1.10;;;8.30;97.30;;;;;;4934463;29;20251;-88
2024/02/20 09:19:55;;;;;;;2.70;2.43;;;8.50;97.30;;;;;;4936305;29;20503;-88
2024/02/20 09:22:20;;;;;;;4.20;3.63;;;8.60;97.30;;;;;;4936463;29;20503;-86
2024/02/20 09:24:46;;;;;;;1.20;1.00;;;8.70;97.30;;;;;;4935943;29;20240;-87
2024/02/20 09:27:12;;;;;;;1.00;0.90;;;8.80;97.30;;;;;;4937140;29;20274;-87
2024/02/20 09:29:40;;;;;;;1.17;1.07;;;8.90;97.30;;;;;;4937000;29;20211;-85
2024/02/20 09:32:05;;;;;;;14.10;1.90;;;9.00;97.30;;;;;;4935673;29;20471;-88
2024/02/20 09:34:31;;;;;;;1.40;1.30;;;9.00;97.30;;;;;;4941989;29;20910;-87
2024/02/20 09:36:56;;;;;;;1.03;0.93;;;8.90;97.30;;;;;;4937557;29;20187;-86
2024/02/20 09:39:25;;;;;;;0.90;0.80;;;9.00;97.30;;;;;;4939287;29;20194;-88
2024/02/20 09:41:53;;;;;;;1.87;1.77;;;8.90;97.30;;;;;;4938478;29;20262;-86
2024/02/20 09:44:26;;;;;;;0.90;0.80;;;8.90;97.30;;;;;;4938330;29;20419;-85
2024/02/20 09:46:57;;;;;;;1.80;1.40;;;9.10;97.30;;;;;;4938262;29;20802;-87
2024/02/20 09:49:22;;;;;;;0.90;0.80;;;9.20;97.30;;;;;;4937875;28;20511;-89
2024/02/20 09:51:49;;;;;;;3.07;1.30;;;9.50;97.30;;;;;;4938285;29;20435;-86
2024/02/20 09:54:16;;;;;;;1.00;0.90;;;9.70;97.30;;;;;;4937755;29;20187;-87
2024/02/20 09:56:43;;;;;;;1.00;0.90;;;9.90;97.30;;;;;;4939320;29;20535;-87
2024/02/20 09:59:10;;;;;;;1.10;1.00;;;10.00;97.30;;;;;;4937675;29;20438;-85
2024/02/20 10:01:36;;;;;;;2.90;2.70;;;9.90;97.30;;;;;;4945821;28;20474;-86
2024/02/20 10:04:04;;;;;;;1.37;1.27;;;10.00;97.30;;;;;;4937031;29;20429;-86
2024/02/20 10:06:30;;;;;;;7.43;2.30;;;10.00;97.30;;;;;;4945531;29;20535;-87
2024/02/20 10:08:57;;;;;;;7.40;2.60;;;10.10;97.30;;;;;;4937818;28;20487;-87
2024/02/20 10:11:25;;;;;;;4.97;1.40;;;10.10;97.30;;;;;;4937849;29;20523;-88
2024/02/20 10:13:55;;;;;;;1.50;1.40;;;10.00;97.30;;;;;;4939308;29;20408;-87
2024/02/20 10:16:24;;;;;;;2.23;2.03;;;9.90;97.30;;;;;;4937572;29;20800;-86
2024/02/20 10:19:04;;;;;;;16.10;1.70;;;9.80;97.30;;;;;;4937416;29;20964;-89
2024/02/20 10:21:30;;;;;;;2.90;1.43;;;9.70;97.30;;;;;;4937205;29;20479;-86
2024/02/20 10:24:05;;;;;;;1.73;1.10;;;9.70;97.30;;;;;;4937488;29;20419;-86
2024/02/20 10:26:34;;;;;;;1.00;0.90;;;9.60;97.30;;;;;;4937387;29;20783;-87
2024/02/20 10:29:04;;;;;;;23.40;2.93;;;9.60;97.30;;;;;;4938258;29;20515;-86
2024/02/20 10:31:31;;;;;;;1.10;1.00;;;9.60;97.30;;;;;;4937037;29;20455;-87
2024/02/20 10:33:57;;;;;;;1.03;0.97;;;9.60;97.30;;;;;;4944864;29;20430;-87
2024/02/20 10:36:24;;;;;;;1.00;0.90;;;9.70;97.30;;;;;;4938091;29;20421;-89
2024/02/20 10:38:51;;;;;;;1.30;1.03;;;9.70;97.30;;;;;;4937603;29;20423;-86
2024/02/20 10:41:18;;;;;;;13.70;1.73;;;9.60;97.30;;;;;;4938073;29;20447;-87
2024/02/20 10:43:48;;;;;;;6.87;1.00;;;9.60;97.30;;;;;;4937410;29;20953;-86
2024/02/20 10:46:14;;;;;;;0.90;0.80;;;9.60;97.30;;;;;;4936900;29;20432;-86
2024/02/20 10:48:45;;;;;;;5.63;2.60;;;9.60;97.30;;;;;;4935573;29;20471;-86
2024/02/20 10:51:12;;;;;;;13.23;1.73;;;9.60;97.30;;;;;;4936584;29;20980;-85
2024/02/20 10:53:39;;;;;;;2.00;1.43;;;9.60;97.30;;;;;;4930702;29;20416;-87
2024/02/20 10:56:08;;;;;;;0.80;0.70;;;9.70;97.30;;;;;;4937253;29;20415;-86
2024/02/20 10:58:39;;;;;;;7.60;2.83;;;9.60;97.30;;;;;;4936422;29;20426;-89
2024/02/20 11:01:08;;;;;;;5.37;1.83;;;9.60;97.30;;;;;;4936429;29;20439;-86
2024/02/20 11:03:33;;;;;;;1.20;1.10;;;9.70;97.30;;;;;;4936747;29;20419;-86
2024/02/20 11:05:59;;;;;;;20.83;1.97;;;9.80;97.30;;;;;;4936792;29;20957;-86
2024/02/20 11:08:27;;;;;;;1.30;1.20;;;9.80;97.30;;;;;;4936813;29;20191;-87
2024/02/20 11:10:52;;;;;;;1.40;1.30;;;9.90;97.30;;;;;;4941398;28;20207;-87
2024/02/20 11:13:25;;;;;;;4.57;1.53;;;10.00;97.30;;;;;;4946988;29;20426;-86
2024/02/20 11:15:51;;;;;;;1.63;0.90;;;10.10;97.30;;;;;;4936352;29;20222;-86
2024/02/20 11:18:20;;;;;;;9.50;1.63;;;10.10;97.30;;;;;;4936193;29;20484;-88
2024/02/20 11:20:46;;;;;;;1.00;0.90;;;10.10;97.20;;;;;;4936167;29;20199;-88
2024/02/20 11:23:12;;;;;;;0.90;0.80;;;10.10;97.30;;;;;;4936466;29;20526;-86
2024/02/20 11:25:41;;;;;;;2.33;2.13;;;10.10;97.10;;;;;;4936362;29;20439;-86
2024/02/20 11:28:14;;;;;;;0.90;0.80;;;10.10;96.90;;;;;;4944296;29;20542;-86
2024/02/20 11:30:40;;;;;;;11.10;1.30;;;10.10;97.30;;;;;;4936024;29;21122;-86
2024/02/20 11:33:16;;;;;;;1.10;1.00;;;10.10;96.90;;;;;;4936197;29;20540;-87
2024/02/20 11:35:45;;;;;;;3.83;2.80;;;10.10;96.70;;;;;;4928562;29;20825;-88
2024/02/20 11:38:11;;;;;;;6.63;1.20;;;10.10;96.70;;;;;;4935815;29;20424;-86
2024/02/20 11:40:37;;;;;;;0.90;0.80;;;10.20;97.30;;;;;;4936108;29;20459;-86
2024/02/20 11:43:04;;;;;;;1.60;1.33;;;10.30;97.30;;;;;;4936709;29;20435;-86
2024/02/20 11:45:40;;;;;;;0.90;0.80;;;10.30;97.30;;;;;;4920336;29;20423;-87
2024/02/20 11:48:13;;;;;;;1.30;1.20;;;10.40;97.30;;;;;;4936721;29;20434;-86
2024/02/20 11:50:46;;;;;;;1.27;1.17;;;10.60;97.10;;;;;;4943960;29;20466;-87
2024/02/20 11:53:13;;;;;;;0.97;0.87;;;10.60;96.90;;;;;;4937149;29;20420;-87
2024/02/20 11:55:49;;;;;;;1.00;0.90;;;10.70;96.40;;;;;;4936865;29;20412;-88
2024/02/20 11:58:15;;;;;;;0.90;0.80;;;10.50;96.40;;;;;;4935483;29;20851;-87
2024/02/20 12:00:41;;;;;;;3.17;1.80;;;10.40;96.80;;;;;;4935249;28;20965;-87
2024/02/20 12:03:07;;;;;;;20.60;3.80;;;10.40;97.30;;;;;;4935900;28;20419;-87
2024/02/20 12:05:41;;;;;;;2.27;1.70;;;10.50;96.50;;;;;;4935553;29;20432;-88
2024/02/20 12:08:16;;;;;;;0.90;0.80;;;10.50;96.20;;;;;;4936150;29;20428;-87
2024/02/20 12:10:44;;;;;;;4.70;2.70;;;10.40;96.70;;;;;;4935095;29;20475;-87
2024/02/20 12:13:24;;;;;;;1.23;1.00;;;10.40;96.10;;;;;;4935097;29;20419;-88
2024/02/20 12:15:49;;;;;;;14.83;2.90;;;10.40;96.20;;;;;;4939915;29;20934;-91
2024/02/20 12:18:25;;;;;;;9.17;1.57;;;10.40;96.40;;;;;;4945060;29;20428;-89
2024/02/20 12:21:05;;;;;;;6.17;1.83;;;10.40;97.30;;;;;;4939100;29;20279;-86
2024/02/20 12:23:31;;;;;;;4.50;1.33;;;10.70;97.30;;;;;;4945740;29;20850;-90
2024/02/20 12:26:10;;;;;;;1.30;1.20;;;11.20;96.30;;;;;;4946413;29;20420;-89
2024/02/20 12:28:37;;;;;;;1.27;1.17;;;11.60;95.50;;;;;;4953904;29;20187;-90
2024/02/20 12:31:06;;;;;;;1.10;0.80;;;11.70;95.50;;;;;;4934763;29;20824;-90
2024/02/20 12:33:32;;;;;;;1.43;1.33;;;11.80;95.40;;;;;;4934546;29;20424;-89
2024/02/20 12:35:58;;;;;;;0.67;0.63;;;11.60;94.80;;;;;;4939645;28;20567;-89
2024/02/20 12:38:25;;;;;;;1.93;1.83;;;11.40;95.40;;;;;;4937518;29;20464;-89
2024/02/20 12:40:51;;;;;;;3.63;2.57;;;11.30;96.30;;;;;;4934844;29;20502;-91
2024/02/20 12:43:17;;;;;;;1.33;1.23;;;11.10;94.80;;;;;;4935343;29;20954;-89
2024/02/20 12:45:42;;;;;;;2.13;1.83;;;11.10;95.00;;;;;;4934729;29;20183;-90
2024/02/20 12:48:08;;;;;;;2.07;1.30;;;10.90;95.40;;;;;;4936205;29;20211;-89
2024/02/20 12:50:38;;;;;;;0.90;0.80;;;10.60;95.10;;;;;;4934831;29;20211;-90
2024/02/20 12:53:04;;;;;;;2.40;1.90;;;10.40;95.80;;;;;;4934856;29;20180;-89
2024/02/20 12:55:37;;;;;;;9.83;3.00;;;10.30;96.20;;;;;;4934305;29;20443;-88
2024/02/20 12:58:06;;;;;;;0.80;0.70;;;10.10;96.10;;;;;;4934645;29;20703;-89
2024/02/20 13:00:32;;;;;;;16.13;3.77;;;10.10;96.40;;;;;;4937188;28;20531;-90
2024/02/20 13:02:58;;;;;;;0.80;0.70;;;10.00;96.90;;;;;;4937196;29;20464;-89
2024/02/20 13:05:31;;;;;;;1.43;0.80;;;10.00;97.30;;;;;;4943906;29;20628;-89
2024/02/20 13:08:04;;;;;;;1.60;1.57;;;10.00;97.30;;;;;;4936577;29;20438;-89
2024/02/20 13:10:30;;;;;;;1.10;1.00;;;10.00;97.30;;;;;;4936412;29;20467;-88
2024/02/20 13:12:57;;;;;;;5.57;0.90;;;10.10;97.30;;;;;;4937423;29;20534;-89
2024/02/20 13:15:26;;;;;;;4.97;1.63;;;10.10;97.30;;;;;;4943683;29;21009;-88
2024/02/20 13:17:54;;;;;;;7.50;1.47;;;10.10;97.30;;;;;;4937059;29;20438;-89
2024/02/20 13:20:25;;;;;;;1.00;0.93;;;10.10;97.30;;;;;;4936251;29;20446;-89
2024/02/20 13:22:53;;;;;;;1.00;0.90;;;10.10;97.30;;;;;;4928652;29;20479;-89
2024/02/20 13:25:21;;;;;;;3.03;2.03;;;10.10;97.30;;;;;;4936190;29;20544;-89
2024/02/20 13:27:47;;;;;;;1.50;1.27;;;10.10;97.30;;;;;;4945348;29;20440;-89
2024/02/20 13:30:14;;;;;;;0.90;0.80;;;10.10;97.30;;;;;;4945506;29;20451;-89
2024/02/20 13:32:41;;;;;;;5.30;2.03;;;10.10;97.30;;;;;;4945234;29;20423;-91
2024/02/20 13:35:07;;;;;;;1.33;1.20;;;10.10;97.30;;;;;;4945056;29;20435;-89
2024/02/20 13:37:33;;;;;;;0.83;0.73;;;10.10;97.20;;;;;;4934411;29;20601;-88
2024/02/20 13:39:58;;;;;;;0.80;0.70;;;10.00;97.30;;;;;;4934609;29;20424;-88
2024/02/20 13:42:24;;;;;;;1.10;1.00;;;10.00;97.30;;;;;;4933573;29;20447;-90
2024/02/20 13:44:49;;;;;;;4.60;3.90;;;10.00;97.30;;;;;;4933019;29;20218;-89
2024/02/20 13:47:15;;;;;;;2.13;1.67;;;9.90;97.30;;;;;;4940993;29;20192;-89
2024/02/20 13:49:41;;;;;;;1.57;1.47;;;9.90;97.30;;;;;;4931655;29;20589;-91
2024/02/20 13:52:06;;;;;;;9.67;4.43;;;9.90;97.30;;;;;;4932718;29;20530;-89
2024/02/20 13:54:32;;;;;;;1.00;0.90;;;9.90;97.30;;;;;;4932779;29;20190;-89
2024/02/20 13:56:57;;;;;;;0.80;0.70;;;9.90;97.30;;;;;;4933476;29;20186;-89
2024/02/20 13:59:23;;;;;;;1.57;1.20;;;9.90;97.30;;;;;;4933548;29;20729;-89
2024/02/20 14:01:49;;;;;;;1.00;0.90;;;9.80;97.30;;;;;;4933566;29;20195;-89
2024/02/20 14:04:15;;;;;;;0.80;0.70;;;9.80;97.30;;;;;;4934845;29;20184;-89
2024/02/20 14:06:41;;;;;;;4.30;1.67;;;9.80;97.30;;;;;;4933544;29;20509;-89
2024/02/20 14:09:06;;;;;;;1.20;1.10;;;9.70;97.30;;;;;;4933862;29;20204;-89
2024/02/20 14:11:36;;;;;;;0.90;0.80;;;9.70;97.30;;;;;;4933152;28;20218;-91
2024/02/20 14:14:02;;;;;;;5.40;1.50;;;9.60;97.30;;;;;;4933674;29;20216;-89
2024/02/20 14:16:27;;;;;;;3.23;2.50;;;9.60;97.30;;;;;;4933215;29;20458;-89
2024/02/20 14:18:53;;;;;;;7.03;1.77;;;9.60;97.30;;;;;;4933843;29;20188;-88
2024/02/20 14:21:18;;;;;;;0.80;0.70;;;9.60;97.30;;;;;;4933123;29;20232;-89
2024/02/20 14:23:44;;;;;;;11.67;2.07;;;9.60;97.30;;;;;;4936930;29;20195;-89
2024/02/20 14:26:12;;;;;;;1.43;1.33;;;9.60;97.30;;;;;;4936966;29;20218;-89
2024/02/20 14:28:38;;;;;;;35.17;1.83;;;9.50;97.30;;;;;;4936902;29;20250;-89
2024/02/20 14:31:05;;;;;;;1.13;1.03;;;9.50;97.30;;;;;;4936463;29;20439;-89
2024/02/20 14:33:31;;;;;;;1.70;1.60;;;9.50;97.30;;;;;;4936914;29;20172;-90
2024/02/20 14:35:57;;;;;;;3.23;1.40;;;9.50;97.30;;;;;;4938144;29;20408;-89
2024/02/20 14:38:23;;;;;;;1.50;1.40;;;9.60;97.30;;;;;;4936975;29;20428;-89
2024/02/20 14:40:50;;;;;;;1.20;1.10;;;9.50;97.30;;;;;;4936755;29;20415;-90
2024/02/20 14:43:16;;;;;;;2.30;1.53;;;9.50;97.30;;;;;;4936735;29;20183;-89
2024/02/20 14:45:42;;;;;;;1.63;1.00;;;9.60;97.30;;;;;;4936588;29;20422;-89
2024/02/20 14:48:07;;;;;;;65.33;2.43;;;9.60;97.30;;;;;;4936575;28;20191;-90
2024/02/20 14:50:33;;;;;;;0.90;0.80;;;9.60;97.30;;;;;;4936578;29;20215;-90
2024/02/20 14:53:06;;;;;;;1.50;1.40;;;9.60;97.30;;;;;;4936423;29;20211;-89
2024/02/20 14:55:33;;;;;;;4.40;1.00;;;9.50;97.30;;;;;;4936347;29;20176;-89
2024/02/20 14:57:59;;;;;;;5.67;1.30;;;9.50;97.30;;;;;;4936514;29;20420;-88
2024/02/20 15:00:25;;;;;;;1.43;1.33;;;9.50;97.30;;;;;;4944464;29;20864;-89
2024/02/20 15:02:50;;;;;;;2.77;2.37;;;9.50;97.30;;;;;;4933748;29;20444;-90
2024/02/20 15:05:16;;;;;;;2.97;1.93;;;9.40;97.30;;;;;;4939627;29;20187;-89
2024/02/20 15:07:45;;;;;;;12.27;1.10;;;9.50;97.30;;;;;;4937398;29;20180;-89
2024/02/20 15:10:30;;;;;;;;;;;;;;;;;;;;;
2024/02/20 15:12:56;;;;;;;7.40;1.77;;;9.40;97.30;;;;;;4937668;29;20447;-90
2024/02/20 15:15:24;;;;;;;1.27;1.17;;;9.40;97.30;;;;;;4937590;29;20504;-89
2024/02/20 15:17:57;;;;;;;1.03;0.93;;;9.40;97.30;;;;;;4935937;29;20721;-89
2024/02/20 15:20:25;;;;;;;0.90;0.80;;;9.40;97.30;;;;;;4935540;28;20483;-89
2024/02/20 15:22:53;;;;;;;0.80;0.70;;;9.40;97.30;;;;;;4935295;28;20482;-88
2024/02/20 15:25:26;;;;;;;5.10;1.93;;;9.40;97.30;;;;;;4934956;29;20507;-89
2024/02/20 15:27:54;;;;;;;1.33;1.30;;;9.40;97.30;;;;;;4943065;29;20434;-89
2024/02/20 15:30:20;;;;;;;15.80;2.53;;;9.40;97.30;;;;;;4935384;29;20490;-92
2024/02/20 15:32:45;;;;;;;6.43;1.47;;;9.40;97.30;;;;;;4935118;29;20535;-90
2024/02/20 15:35:14;;;;;;;1.30;1.20;;;9.30;97.30;;;;;;4935742;29;20515;-88
2024/02/20 15:37:49;;;;;;;;;;;;;;;;;;;;;
2024/02/20 15:40:15;;;;;;;0.90;0.80;;;9.30;97.30;;;;;;4936264;29;20419;-89
2024/02/20 15:42:44;;;;;;;1.13;1.07;;;9.30;97.30;;;;;;4942962;28;20539;-89
2024/02/20 15:45:17;;;;;;;9.37;1.97;;;9.30;97.30;;;;;;4935230;29;20215;-91
2024/02/20 15:47:43;;;;;;;2.63;2.43;;;9.30;97.30;;;;;;4935238;29;20435;-87
2024/02/20 15:50:15;;;;;;;0.80;0.70;;;9.30;97.30;;;;;;4935094;29;20479;-91
2024/02/20 15:52:57;;;;;;;1.10;1.00;;;9.20;97.30;;;;;;4934801;29;20238;-89
2024/02/20 15:55:30;;;;;;;7.77;1.60;;;9.20;97.30;;;;;;4935006;29;20424;-88
2024/02/20 15:57:55;;;;;;;1.63;1.50;;;9.20;97.30;;;;;;4936146;29;20407;-88
2024/02/20 16:00:24;;;;;;;0.90;0.80;;;9.20;97.30;;;;;;4936465;29;20807;-86
2024/02/20 16:02:54;;;;;;;2.70;2.50;;;9.20;97.30;;;;;;4935296;29;20204;-89
2024/02/20 16:05:27;;;;;;;1.00;0.90;;;9.20;97.30;;;;;;4934223;29;20466;-89
2024/02/20 16:07:57;;;;;;;1.13;1.03;;;9.20;97.30;;;;;;4933381;28;20427;-89
2024/02/20 16:10:23;;;;;;;1.10;1.10;;;9.20;97.30;;;;;;4933670;28;20463;-88
2024/02/20 16:12:49;;;;;;;1.07;0.97;;;9.20;97.30;;;;;;4932849;29;20443;-88
2024/02/20 16:15:15;;;;;;;2.97;1.17;;;9.20;97.30;;;;;;4939505;29;20330;-89
2024/02/20 16:17:40;;;;;;;2.70;2.50;;;9.20;97.30;;;;;;4951232;29;20186;-88
2024/02/20 16:20:10;;;;;;;1.90;1.23;;;9.20;97.30;;;;;;4933779;29;20199;-92
2024/02/20 16:22:36;;;;;;;0.97;0.87;;;9.20;97.30;;;;;;4932003;29;20246;-87
2024/02/20 16:25:07;;;;;;;1.20;1.20;;;9.20;97.30;;;;;;4942287;29;20416;-89
2024/02/20 16:27:35;;;;;;;2.40;2.20;;;9.20;97.30;;;;;;4933233;29;20428;-89
2024/02/20 16:30:01;;;;;;;0.90;0.80;;;9.20;97.30;;;;;;4925105;29;20473;-87
2024/02/20 16:32:29;;;;;;;7.80;2.43;;;9.20;97.30;;;;;;4947233;28;20818;-87
2024/02/20 16:34:55;;;;;;;2.50;1.43;;;9.20;97.30;;;;;;4951874;29;20191;-86
2024/02/20 16:37:20;;;;;;;1.27;1.17;;;9.10;97.30;;;;;;4947308;28;20434;-87
2024/02/20 16:39:47;;;;;;;1.07;0.97;;;9.10;97.30;;;;;;4934057;29;20251;-87
2024/02/20 16:42:13;;;;;;;1.53;1.30;;;9.10;97.30;;;;;;4942473;29;20209;-88
2024/02/20 16:44:40;;;;;;;1.63;1.53;;;9.10;97.30;;;;;;4932730;29;20427;-86
2024/02/20 16:47:06;;;;;;;5.30;1.57;;;9.10;97.30;;;;;;4949072;28;20511;-87
2024/02/20 16:49:35;;;;;;;4.80;1.13;;;9.10;97.30;;;;;;4939696;29;20458;-87
2024/02/20 16:52:03;;;;;;;0.90;0.80;;;9.10;97.30;;;;;;4934865;29;20204;-86
2024/02/20 16:54:29;;;;;;;1.23;1.10;;;9.10;97.30;;;;;;4940165;29;20479;-86
2024/02/20 16:56:55;;;;;;;4.87;1.67;;;9.10;97.30;;;;;;4931386;29;20422;-86
2024/02/20 16:59:23;;;;;;;1.00;0.90;;;9.10;97.30;;;;;;4932406;29;20507;-87
2024/02/20 17:01:49;;;;;;;6.90;1.87;;;9.10;97.30;;;;;;4936228;29;20439;-86
2024/02/20 17:04:15;;;;;;;2.80;1.30;;;9.00;97.30;;;;;;4940300;29;20420;-87
2024/02/20 17:06:42;;;;;;;1.20;1.10;;;9.00;97.30;;;;;;4938371;29;20463;-87
2024/02/20 17:09:08;;;;;;;3.20;2.27;;;9.00;97.30;;;;;;4934078;29;20902;-87
2024/02/20 17:11:34;;;;;;;2.70;2.10;;;9.00;97.30;;;;;;4940034;28;20538;-87
2024/02/20 17:14:00;;;;;;;9.33;1.37;;;9.00;97.30;;;;;;4939832;29;20428;-87
2024/02/20 17:16:25;;;;;;;17.87;1.47;;;9.00;97.30;;;;;;4933653;29;20424;-87
2024/02/20 17:18:53;;;;;;;1.10;1.00;;;9.00;97.30;;;;;;4939413;29;20180;-87
2024/02/20 17:21:26;;;;;;;10.63;1.03;;;9.00;97.30;;;;;;4946075;28;20235;-87
2024/02/20 17:23:55;;;;;;;0.90;0.80;;;9.00;97.30;;;;;;4929306;29;20433;-87
2024/02/20 17:26:20;;;;;;;1.77;1.67;;;9.00;97.30;;;;;;4945353;29;20933;-87
2024/02/20 17:28:46;;;;;;;1.00;0.90;;;9.00;97.30;;;;;;4944457;28;20422;-86
2024/02/20 17:31:21;;;;;;;1.10;1.00;;;9.00;97.30;;;;;;4947127;28;20235;-87
2024/02/20 17:33:47;;;;;;;3.93;3.73;;;9.00;97.30;;;;;;4931750;29;20187;-87
2024/02/20 17:36:20;;;;;;;1.40;1.30;;;9.00;97.30;;;;;;4933079;29;20416;-87
2024/02/20 17:38:46;;;;;;;1.03;0.93;;;9.00;97.30;;;;;;4944453;29;20851;-87
2024/02/20 17:41:19;;;;;;;1.60;1.50;;;9.00;97.30;;;;;;4938186;29;20456;-88
2024/02/20 17:43:45;;;;;;;1.23;1.13;;;9.00;97.30;;;;;;4940298;29;20435;-88
2024/02/20 17:46:16;;;;;;;1.07;0.97;;;9.00;97.30;;;;;;4938806;29;20750;-89
2024/02/20 17:48:51;;;;;;;6.93;2.60;;;9.00;97.30;;;;;;4934070;29;20251;-87
2024/02/20 17:51:24;;;;;;;1.87;1.83;;;9.00;97.30;;;;;;4932044;29;20454;-88
2024/02/20 17:53:52;;;;;;;2.40;2.20;;;9.00;97.30;;;;;;4932078;29;20432;-87
2024/02/20 17:56:18;;;;;;;1.40;1.30;;;9.00;97.30;;;;;;4931800;29;20428;-87
2024/02/20 17:58:44;;;;;;;2.30;1.87;;;9.00;97.30;;;;;;4942217;28;20424;-86